This is the latest recevied weather packets stored in our database for station/object N8XE-13. If no packets are shown the sender has not sent any weather packets the latest 10 day(s).
| Time | Temp. | Humidity | Pressure | Rain* | Wind** | Luminosity | Snow |
|---|---|---|---|---|---|---|---|
| 1777934394 | 21.67° C | 55% | - | 0 mm | - | - | - |
| 1777934090 | 21.67° C | 55% | - | 0 mm | - | - | - |
| 1777933786 | 21.67° C | 54% | - | 0 mm | - | - | - |
| 1777933483 | 21.67° C | 54% | - | 0 mm | - | - | - |
| 1777933181 | 22.22° C | 54% | - | 0 mm | - | - | - |
| 1777932878 | 22.22° C | 53% | - | 0 mm | - | - | - |
| 1777932575 | 22.22° C | 54% | - | 0 mm | - | - | - |
| 1777932271 | 21.11° C | 57% | - | 0 mm | - | - | - |
| 1777931968 | 21.11° C | 58% | - | 0 mm | - | - | - |
| 1777931665 | 20.56° C | 58% | - | 0 mm | - | - | - |
| 1777931361 | 20.56° C | 59% | - | 0 mm | - | - | - |
| 1777931058 | 20.56° C | 59% | - | 0 mm | - | - | - |
| 1777930755 | 21.11° C | 58% | - | 0 mm | - | - | - |
| 1777930450 | 21.67° C | 55% | - | 0 mm | - | - | - |
| 1777930149 | 21.67° C | 56% | - | 0 mm | - | - | - |
| 1777929844 | 22.22° C | 54% | - | 0 mm | - | - | - |
| 1777929542 | 22.22° C | 52% | - | 0 mm | - | - | - |
| 1777929238 | 22.22° C | 52% | - | 0 mm | - | - | - |
| 1777928935 | 22.22° C | 51% | - | 0 mm | - | - | - |
| 1777928632 | 23.33° C | 52% | - | 0 mm | - | - | - |
| 1777928329 | 22.78° C | 52% | - | 0 mm | - | - | - |
| 1777928027 | 22.78° C | 53% | - | 0 mm | - | - | - |
| 1777927725 | 21.67° C | 54% | - | 0 mm | - | - | - |
| 1777927423 | 21.67° C | 55% | - | 0 mm | - | - | - |
| 1777927122 | 21.11° C | 57% | - | 0 mm | - | - | - |
* Rain latest hour (hover to see other rain measurements)
** Current wind speed in m/s (hover to see current wind gust speed)